Himyar, Kentucky
Current Conditions -  °F | °C
As of 9:53 PM on Thursday 18 Dec 2014 (Local Time) from KLOZ Reporting Station
Overcast Overcast  
Wind Chill: 29°   Ceiling: 5500
Heat Index: 34°   Visibility: 10mi
Dew Point: 24°   Wind: 6mph
Humidity: 67%   Direction: 310°NW
Pressure: 30.2"   Gusts: NA
Location:  36.865°N, 83.9507°W
Report Text: KLOZ 190253Z AUTO 31005KT 10SM OVC055 01/M04 A3020 RMK AO2 SLP234 T00111044 53004
Loading
Personal Weather Stations






























Interactive Weather Map New forecast layout! Learn more

10-Day Weather Forecast

Advertisements
Track Severe Weather on mobile